createdAt,value
2017-08-20T00:06:18.399Z,100618
2017-08-20T00:14:44.842Z,100609
2017-08-20T00:17:16.327Z,100616
2017-08-20T00:19:48.900Z,100629
2017-08-20T00:22:18.596Z,100631
2017-08-20T00:24:49.158Z,100634
2017-08-20T00:27:18.780Z,100644
2017-08-20T00:29:48.638Z,100653
2017-08-20T00:32:18.410Z,100648
2017-08-20T00:34:48.090Z,100650
2017-08-20T00:37:17.675Z,100650
2017-08-20T00:39:47.393Z,100638
2017-08-20T00:45:13.438Z,100642
2017-08-20T00:47:43.618Z,100643
2017-08-20T00:50:13.285Z,100647
2017-08-20T00:52:42.872Z,100635
2017-08-20T00:58:07.161Z,100653
2017-08-20T01:03:31.937Z,100646
2017-08-20T01:06:02.792Z,100638
2017-08-20T01:08:32.643Z,100623
2017-08-20T01:11:02.818Z,100632
2017-08-20T01:13:32.394Z,100633
2017-08-20T01:16:01.996Z,100613
2017-08-20T01:18:31.770Z,100623
2017-08-20T01:21:01.369Z,100631
2017-08-20T01:26:26.620Z,100630
2017-08-20T01:28:56.354Z,100624
2017-08-20T01:31:25.993Z,100629
2017-08-20T01:33:55.602Z,100632
2017-08-20T01:36:25.275Z,100625
2017-08-20T01:38:54.853Z,100626
2017-08-20T01:41:24.503Z,100640
2017-08-20T01:43:54.083Z,100643
2017-08-20T01:46:23.723Z,100636
2017-08-20T01:48:53.293Z,100631
2017-08-20T01:51:23.130Z,100633
2017-08-20T01:53:52.887Z,100623
2017-08-20T01:56:22.456Z,100610
2017-08-20T01:58:52.133Z,100599
2017-08-20T02:01:22.803Z,100603
2017-08-20T02:03:52.486Z,100605
2017-08-20T02:06:22.052Z,100605
2017-08-20T02:08:51.941Z,100610
2017-08-20T02:11:22.225Z,100602
2017-08-20T02:13:51.791Z,100599
2017-08-20T02:16:21.451Z,100609
2017-08-20T02:21:30.420Z,100602
2017-08-20T02:24:00.065Z,100610
2017-08-20T02:26:29.711Z,100607
2017-08-20T02:28:59.281Z,100603
2017-08-20T02:31:29.874Z,100610
2017-08-20T02:34:00.658Z,100614
2017-08-20T02:36:30.264Z,100624
2017-08-20T02:38:59.888Z,100614
2017-08-20T02:41:29.478Z,100617
2017-08-20T02:43:59.267Z,100615
2017-08-20T02:46:28.858Z,100612
2017-08-20T02:51:54.780Z,100628
2017-08-20T02:54:24.356Z,100622
2017-08-20T02:56:54.658Z,100623
2017-08-20T02:59:24.242Z,100620
2017-08-20T03:01:53.906Z,100625
2017-08-20T03:04:23.650Z,100633
2017-08-20T03:06:53.463Z,100637
2017-08-20T03:09:23.279Z,100635
2017-08-20T03:11:52.922Z,100638
2017-08-20T03:17:18.368Z,100644
2017-08-20T03:19:48.007Z,100634
2017-08-20T03:22:17.689Z,100635
2017-08-20T03:24:47.262Z,100629
2017-08-20T03:27:16.912Z,100631
2017-08-20T03:29:46.485Z,100622
2017-08-20T03:32:16.130Z,100626
2017-08-20T03:34:46.522Z,100627
2017-08-20T03:37:16.167Z,100630
2017-08-20T03:39:45.736Z,100629
2017-08-20T03:42:15.407Z,100629
2017-08-20T03:44:45.941Z,100628
2017-08-20T03:47:16.361Z,100631
2017-08-20T03:49:46.097Z,100630
2017-08-20T03:52:16.077Z,100628
2017-08-20T03:54:45.697Z,100633
2017-08-20T03:57:18.152Z,100637
2017-08-20T03:59:47.791Z,100635
2017-08-20T04:02:17.484Z,100634
2017-08-20T04:04:47.134Z,100642
2017-08-20T04:07:16.889Z,100637
2017-08-20T04:09:46.471Z,100634
2017-08-20T04:12:16.167Z,100639
2017-08-20T04:14:45.770Z,100642
2017-08-20T04:17:15.410Z,100644
2017-08-20T04:19:44.986Z,100627
2017-08-20T04:28:04.406Z,100636
2017-08-20T04:30:34.048Z,100637
2017-08-20T04:33:04.389Z,100651
2017-08-20T04:35:35.003Z,100654
2017-08-20T04:38:04.797Z,100657
2017-08-20T04:40:34.510Z,100653
2017-08-20T04:43:04.085Z,100657
2017-08-20T04:45:33.739Z,100655
2017-08-20T04:48:03.325Z,100659
2017-08-20T04:50:42.665Z,100661
2017-08-20T04:53:12.249Z,100665
2017-08-20T04:55:41.899Z,100669
2017-08-20T04:58:11.529Z,100661
2017-08-20T05:00:41.171Z,100668
2017-08-20T05:03:11.168Z,100663
2017-08-20T05:05:41.623Z,100669
2017-08-20T05:11:06.458Z,100674
2017-08-20T05:13:38.977Z,100666
2017-08-20T05:16:08.655Z,100661
2017-08-20T05:24:36.205Z,100663
2017-08-20T05:27:05.855Z,100667
2017-08-20T05:29:35.424Z,100670
2017-08-20T05:35:00.011Z,100666
2017-08-20T05:37:29.609Z,100682
2017-08-20T05:39:59.205Z,100678
2017-08-20T05:42:28.832Z,100664
2017-08-20T05:44:58.433Z,100663
2017-08-20T05:47:28.029Z,100665
2017-08-20T05:52:52.849Z,100661
2017-08-20T05:55:22.428Z,100664
2017-08-20T05:57:52.324Z,100668
2017-08-20T06:00:40.815Z,100670
2017-08-20T06:03:10.639Z,100678
2017-08-20T06:08:34.738Z,100672
2017-08-20T06:11:04.321Z,100672
2017-08-20T06:13:33.978Z,100672
2017-08-20T06:16:03.586Z,100670
2017-08-20T06:18:42.876Z,100664
2017-08-20T06:21:12.439Z,100673
2017-08-20T06:23:42.091Z,100672
2017-08-20T06:26:11.680Z,100673
2017-08-20T06:34:33.201Z,100686
2017-08-20T06:37:02.842Z,100681
2017-08-20T06:39:32.466Z,100690
2017-08-20T06:42:02.036Z,100687
2017-08-20T06:44:31.677Z,100689
2017-08-20T06:47:01.249Z,100696
2017-08-20T06:49:30.899Z,100693
2017-08-20T06:52:00.480Z,100703
2017-08-20T06:54:30.134Z,100704
2017-08-20T06:56:59.713Z,100702
2017-08-20T07:02:24.094Z,100703
2017-08-20T07:04:53.667Z,100694
2017-08-20T07:07:23.310Z,100694
2017-08-20T07:09:52.914Z,100684
2017-08-20T07:12:22.492Z,100688
2017-08-20T07:14:52.161Z,100696
2017-08-20T07:17:21.742Z,100693
2017-08-20T07:19:51.386Z,100690
2017-08-20T07:22:20.965Z,100691
2017-08-20T07:24:50.607Z,100689
2017-08-20T07:27:20.186Z,100702
2017-08-20T07:29:49.837Z,100700
2017-08-20T07:32:19.405Z,100707
2017-08-20T07:34:49.051Z,100713
2017-08-20T07:40:13.926Z,100705
2017-08-20T07:42:43.503Z,100709
2017-08-20T07:45:13.158Z,100702
2017-08-20T07:47:42.739Z,100703
2017-08-20T07:50:12.397Z,100707
2017-08-20T07:52:41.982Z,100704
2017-08-20T07:55:11.625Z,100705
2017-08-20T07:57:41.223Z,100706
2017-08-20T08:00:10.816Z,100715
2017-08-20T08:02:40.422Z,100719
2017-08-20T08:08:07.904Z,100716
2017-08-20T08:10:37.778Z,100715
2017-08-20T08:13:07.409Z,100721
2017-08-20T08:15:36.994Z,100720
2017-08-20T08:18:06.614Z,100729
2017-08-20T08:20:36.262Z,100731
2017-08-20T08:25:57.280Z,100734
2017-08-20T08:28:26.997Z,100735
2017-08-20T08:30:56.682Z,100734
2017-08-20T08:36:21.920Z,100730
2017-08-20T08:38:51.493Z,100729
2017-08-20T08:41:21.107Z,100723
2017-08-20T08:43:50.742Z,100713
2017-08-20T08:46:20.320Z,100721
2017-08-20T08:48:50.089Z,100722
2017-08-20T08:54:15.289Z,100729
2017-08-20T08:56:44.935Z,100733
2017-08-20T08:59:14.583Z,100735
2017-08-20T09:04:38.888Z,100739
2017-08-20T09:07:08.457Z,100738
2017-08-20T09:09:38.964Z,100746
2017-08-20T09:12:08.761Z,100737
2017-08-20T09:14:38.365Z,100734
2017-08-20T09:17:07.990Z,100735
2017-08-20T09:19:37.597Z,100735
2017-08-20T09:22:07.242Z,100727
2017-08-20T09:24:37.518Z,100732
2017-08-20T09:27:07.157Z,100728
2017-08-20T09:29:36.756Z,100722
2017-08-20T09:35:01.258Z,100733
2017-08-20T09:37:30.861Z,100726
2017-08-20T09:40:00.562Z,100735
2017-08-20T09:42:30.148Z,100747
2017-08-20T09:44:59.717Z,100743
2017-08-20T09:50:24.113Z,100745
2017-08-20T09:52:53.694Z,100741
2017-08-20T09:55:23.385Z,100741
2017-08-20T10:03:42.262Z,100726
2017-08-20T10:06:11.846Z,100728
2017-08-20T10:08:41.504Z,100730
2017-08-20T10:11:11.091Z,100741
2017-08-20T10:13:40.733Z,100742
2017-08-20T10:16:10.330Z,100736
2017-08-20T10:18:50.132Z,100736
2017-08-20T10:21:19.697Z,100739
2017-08-20T10:23:49.384Z,100724
2017-08-20T10:29:15.941Z,100724
2017-08-20T10:31:48.324Z,100729
2017-08-20T10:34:17.970Z,100732
2017-08-20T10:36:47.523Z,100730
2017-08-20T10:39:17.163Z,100731
2017-08-20T10:41:46.757Z,100733
2017-08-20T10:47:11.025Z,100736
2017-08-20T10:49:40.601Z,100724
2017-08-20T10:52:10.171Z,100724
2017-08-20T11:00:29.144Z,100735
2017-08-20T11:02:59.497Z,100730
2017-08-20T11:05:29.104Z,100729
2017-08-20T11:07:58.723Z,100725
2017-08-20T11:10:28.365Z,100733
2017-08-20T11:12:57.952Z,100728
2017-08-20T11:15:27.828Z,100732
2017-08-20T11:17:58.814Z,100734
2017-08-20T11:20:28.446Z,100729
2017-08-20T11:25:52.639Z,100716
2017-08-20T11:28:22.200Z,100720
2017-08-20T11:30:51.792Z,100712
2017-08-20T11:33:21.369Z,100708
2017-08-20T11:35:50.969Z,100708
2017-08-20T11:38:20.542Z,100713
2017-08-20T11:40:50.928Z,100716
2017-08-20T11:43:20.575Z,100727
2017-08-20T11:45:50.237Z,100729
2017-08-20T11:48:19.819Z,100733
2017-08-20T11:53:44.874Z,100725
2017-08-20T11:56:15.338Z,100728
2017-08-20T11:58:44.983Z,100735
2017-08-20T12:01:14.560Z,100730
2017-08-20T12:03:45.028Z,100728
2017-08-20T12:06:18.062Z,100727
2017-08-20T12:08:48.364Z,100732
2017-08-20T12:11:21.044Z,100724
2017-08-20T12:13:50.681Z,100736
2017-08-20T12:16:20.275Z,100737
2017-08-20T12:21:44.764Z,100738
2017-08-20T12:24:14.333Z,100728
2017-08-20T12:26:43.971Z,100728
2017-08-20T12:29:13.621Z,100721
2017-08-20T12:31:43.262Z,100719
2017-08-20T12:37:08.265Z,100723
2017-08-20T12:39:37.851Z,100719
2017-08-20T12:42:07.487Z,100724
2017-08-20T12:44:37.079Z,100721
2017-08-20T12:47:06.901Z,100717
2017-08-20T12:49:36.475Z,100706
2017-08-20T12:52:06.323Z,100706
2017-08-20T12:54:35.900Z,100707
2017-08-20T12:57:05.528Z,100700
2017-08-20T12:59:35.102Z,100705
2017-08-20T13:02:04.758Z,100701
2017-08-20T13:04:34.395Z,100708
2017-08-20T13:07:04.209Z,100704
2017-08-20T13:09:34.792Z,100702
2017-08-20T13:12:04.606Z,100704
2017-08-20T13:17:32.829Z,100699
2017-08-20T13:20:03.463Z,100691
2017-08-20T13:22:33.037Z,100687
2017-08-20T13:25:04.670Z,100689
2017-08-20T13:27:34.281Z,100695
2017-08-20T13:30:03.980Z,100695
2017-08-20T13:32:33.567Z,100688
2017-08-20T13:35:03.199Z,100679
2017-08-20T13:37:32.782Z,100689
2017-08-20T13:40:02.425Z,100680
2017-08-20T13:42:31.997Z,100681
2017-08-20T13:48:02.917Z,100682
2017-08-20T13:50:32.515Z,100679
2017-08-20T13:53:02.186Z,100677
2017-08-20T13:55:31.826Z,100672
2017-08-20T14:00:57.412Z,100677
2017-08-20T14:03:27.054Z,100679
2017-08-20T14:05:56.645Z,100672
2017-08-20T14:08:26.295Z,100671
2017-08-20T14:10:56.037Z,100674
2017-08-20T14:13:42.934Z,100672
2017-08-20T14:16:12.824Z,100670
2017-08-20T14:18:42.451Z,100680
2017-08-20T14:21:12.730Z,100683
2017-08-20T14:23:42.315Z,100680
2017-08-20T14:26:12.024Z,100672
2017-08-20T14:28:41.588Z,100674
2017-08-20T14:31:11.225Z,100670
2017-08-20T14:33:40.807Z,100677
2017-08-20T14:36:10.589Z,100682
2017-08-20T14:44:30.474Z,100690
2017-08-20T14:47:00.859Z,100695
2017-08-20T14:49:31.411Z,100693
2017-08-20T14:52:01.011Z,100698
2017-08-20T15:00:20.590Z,100698
2017-08-20T15:02:50.207Z,100698
2017-08-20T15:05:27.080Z,100692
2017-08-20T15:07:57.354Z,100689
2017-08-20T15:13:23.676Z,100688
2017-08-20T15:15:54.209Z,100683
2017-08-20T15:18:23.858Z,100684
2017-08-20T15:23:48.088Z,100682
2017-08-20T15:26:17.671Z,100666
2017-08-20T15:28:48.151Z,100686
2017-08-20T15:31:17.738Z,100675
2017-08-20T15:33:47.384Z,100677
2017-08-20T15:39:11.781Z,100693
2017-08-20T15:44:36.175Z,100697
2017-08-20T15:50:00.427Z,100702
2017-08-20T15:52:30.008Z,100704
2017-08-20T15:54:59.649Z,100687
2017-08-20T15:57:30.418Z,100680
2017-08-20T16:00:00.435Z,100685
2017-08-20T16:02:30.150Z,100675
2017-08-20T16:04:59.829Z,100681
2017-08-20T16:07:29.407Z,100689
2017-08-20T16:09:59.017Z,100680
2017-08-20T16:12:28.648Z,100685
2017-08-20T16:14:58.212Z,100679
2017-08-20T16:23:17.636Z,100680
2017-08-20T16:25:47.308Z,100689
2017-08-20T16:28:17.195Z,100685
2017-08-20T16:36:36.284Z,100687
2017-08-20T16:39:05.927Z,100695
2017-08-20T16:47:24.884Z,100696
2017-08-20T16:49:54.466Z,100699
2017-08-20T16:52:24.104Z,100699
2017-08-20T16:54:53.672Z,100697
2017-08-20T16:57:23.233Z,100700
2017-08-20T16:59:52.870Z,100713
2017-08-20T17:05:17.111Z,100704
2017-08-20T17:07:49.812Z,100707
2017-08-20T17:10:19.462Z,100706
2017-08-20T17:12:49.050Z,100705
2017-08-20T17:15:18.712Z,100706
2017-08-20T17:17:48.466Z,100711
2017-08-20T17:20:18.140Z,100708
2017-08-20T17:22:47.784Z,100706
2017-08-20T17:25:17.749Z,100714
2017-08-20T17:27:47.485Z,100711
2017-08-20T17:30:17.116Z,100707
2017-08-20T17:32:49.501Z,100721
2017-08-20T17:35:19.319Z,100716
2017-08-20T17:37:49.288Z,100725
2017-08-20T17:40:18.922Z,100725
2017-08-20T17:42:49.590Z,100727
2017-08-20T17:45:19.242Z,100728
2017-08-20T17:47:48.816Z,100722
2017-08-20T17:50:18.459Z,100727
2017-08-20T17:52:48.021Z,100724
2017-08-20T17:58:12.974Z,100732
2017-08-20T18:00:42.584Z,100730
2017-08-20T18:03:12.298Z,100730
2017-08-20T18:05:41.887Z,100724
2017-08-20T18:08:11.613Z,100734
2017-08-20T18:13:36.290Z,100737
2017-08-20T18:19:01.023Z,100740
2017-08-20T18:21:30.631Z,100737
2017-08-20T18:24:00.277Z,100742
2017-08-20T18:32:19.394Z,100742
2017-08-20T18:34:48.978Z,100743
2017-08-20T18:40:13.522Z,100749
2017-08-20T18:42:43.126Z,100754
2017-08-20T18:45:12.827Z,100755
2017-08-20T18:47:42.444Z,100753
2017-08-20T18:52:46.876Z,100756
2017-08-20T18:58:11.288Z,100755
2017-08-20T19:00:40.875Z,100764
2017-08-20T19:03:10.506Z,100760
2017-08-20T19:05:40.114Z,100772
2017-08-20T19:08:09.767Z,100765
2017-08-20T19:10:39.371Z,100768
2017-08-20T19:13:09.035Z,100770
2017-08-20T19:15:38.628Z,100775
2017-08-20T19:18:08.285Z,100791
2017-08-20T19:20:38.807Z,100789
2017-08-20T19:23:08.403Z,100788
2017-08-20T19:25:37.969Z,100793
2017-08-20T19:28:07.629Z,100790
2017-08-20T19:30:37.773Z,100785
2017-08-20T19:33:07.411Z,100779
2017-08-20T19:38:16.168Z,100782
2017-08-20T19:40:45.741Z,100787
2017-08-20T19:43:15.404Z,100794
2017-08-20T19:45:44.998Z,100782
2017-08-20T19:48:14.641Z,100789
2017-08-20T19:50:44.215Z,100793
2017-08-20T19:53:13.989Z,100790
2017-08-20T19:55:43.571Z,100789
2017-08-20T19:58:13.226Z,100789
2017-08-20T20:06:33.858Z,100777
2017-08-20T20:09:03.749Z,100777
2017-08-20T20:11:33.593Z,100781
2017-08-20T20:16:58.476Z,100771
2017-08-20T20:19:28.044Z,100776
2017-08-20T20:21:57.792Z,100773
2017-08-20T20:24:27.735Z,100777
2017-08-20T20:26:57.410Z,100779
2017-08-20T20:29:27.395Z,100785
2017-08-20T20:31:57.039Z,100788
2017-08-20T20:34:26.630Z,100790
2017-08-20T20:36:56.824Z,100785
2017-08-20T20:39:26.414Z,100778
2017-08-20T20:41:56.054Z,100781
2017-08-20T20:44:25.624Z,100783
2017-08-20T20:46:55.194Z,100780
2017-08-20T20:49:24.830Z,100785
2017-08-20T20:51:54.410Z,100790
2017-08-20T20:54:24.128Z,100783
2017-08-20T20:56:53.720Z,100791
2017-08-20T20:59:23.370Z,100793
2017-08-20T21:01:53.533Z,100787
2017-08-20T21:04:23.168Z,100793
2017-08-20T21:06:52.741Z,100789
2017-08-20T21:09:22.377Z,100791
2017-08-20T21:11:51.954Z,100798
2017-08-20T21:14:21.594Z,100786
2017-08-20T21:16:51.169Z,100782
2017-08-20T21:19:20.835Z,100781
2017-08-20T21:21:50.495Z,100786
2017-08-20T21:27:14.922Z,100774
2017-08-20T21:29:44.485Z,100778
2017-08-20T21:32:14.147Z,100787
2017-08-20T21:34:43.739Z,100779
2017-08-20T21:37:13.389Z,100785
2017-08-20T21:45:32.754Z,100790
2017-08-20T21:48:02.316Z,100783
2017-08-20T21:50:31.988Z,100786
2017-08-20T21:55:56.222Z,100792
2017-08-20T21:58:25.838Z,100796
2017-08-20T22:00:55.506Z,100793
2017-08-20T22:03:25.707Z,100793
2017-08-20T22:08:50.446Z,100786
2017-08-20T22:11:20.184Z,100792
2017-08-20T22:13:49.861Z,100795
2017-08-20T22:16:19.518Z,100789
2017-08-20T22:18:49.183Z,100790
2017-08-20T22:21:18.769Z,100784
2017-08-20T22:26:43.596Z,100788
2017-08-20T22:29:13.237Z,100782
2017-08-20T22:31:42.845Z,100782
2017-08-20T22:37:07.446Z,100786
2017-08-20T22:39:37.021Z,100779
2017-08-20T22:42:06.621Z,100787
2017-08-20T22:44:36.198Z,100785
2017-08-20T22:47:05.841Z,100790
2017-08-20T22:55:24.855Z,100782
2017-08-20T22:57:54.702Z,100793
2017-08-20T23:00:24.385Z,100786
2017-08-20T23:08:44.320Z,100785
2017-08-20T23:11:13.897Z,100789
2017-08-20T23:13:43.534Z,100782
2017-08-20T23:16:13.129Z,100778
2017-08-20T23:21:37.420Z,100775
2017-08-20T23:24:06.999Z,100781
2017-08-20T23:26:36.642Z,100772
2017-08-20T23:29:06.224Z,100771
2017-08-20T23:31:42.511Z,100774
2017-08-20T23:34:12.076Z,100772
2017-08-20T23:36:41.725Z,100772
2017-08-20T23:39:11.302Z,100768
2017-08-20T23:41:40.937Z,100763
2017-08-20T23:44:10.516Z,100771
2017-08-20T23:49:35.460Z,100765
2017-08-20T23:52:05.025Z,100776
2017-08-20T23:54:34.658Z,100779
2017-08-20T23:57:04.221Z,100775
